createdAt,value
2023-01-28T00:00:30.381Z,2.95
2023-01-28T00:02:56.741Z,3.88
2023-01-28T00:05:23.932Z,4.90
2023-01-28T00:07:50.958Z,4.15
2023-01-28T00:10:17.582Z,3.78
2023-01-28T00:12:44.458Z,6.45
2023-01-28T00:15:11.768Z,4.05
2023-01-28T00:17:38.328Z,3.13
2023-01-28T00:20:05.202Z,4.47
2023-01-28T00:22:31.771Z,4.38
2023-01-28T00:24:58.551Z,2.80
2023-01-28T00:27:25.056Z,4.30
2023-01-28T00:29:51.405Z,3.28
2023-01-28T00:32:17.678Z,3.20
2023-01-28T00:34:43.932Z,5.18
2023-01-28T00:37:10.225Z,4.05
2023-01-28T00:39:37.661Z,3.80
2023-01-28T00:42:04.005Z,4.07
2023-01-28T00:44:30.299Z,4.22
2023-01-28T00:46:56.653Z,3.75
2023-01-28T00:49:23.021Z,3.45
2023-01-28T00:51:49.401Z,2.80
2023-01-28T00:54:15.815Z,4.18
2023-01-28T00:56:42.159Z,3.75
2023-01-28T00:59:08.498Z,3.00
2023-01-28T01:01:35.095Z,4.78
2023-01-28T01:04:04.287Z,3.15
2023-01-28T01:06:35.419Z,3.50
2023-01-28T01:09:02.309Z,3.92
2023-01-28T01:11:28.599Z,2.80
2023-01-28T01:13:56.139Z,4.43
2023-01-28T01:16:25.234Z,3.88
2023-01-28T01:18:52.830Z,4.00
2023-01-28T01:21:20.527Z,3.75
2023-01-28T01:23:47.154Z,4.07
2023-01-28T01:26:13.979Z,3.10
2023-01-28T01:28:40.268Z,2.80
2023-01-28T01:31:08.285Z,3.63
2023-01-28T01:33:34.990Z,3.58
2023-01-28T01:36:01.381Z,3.35
2023-01-28T01:38:28.810Z,3.53
2023-01-28T01:40:59.577Z,3.83
2023-01-28T01:43:45.860Z,3.90
2023-01-28T01:46:12.576Z,3.65
2023-01-28T01:48:39.233Z,3.15
2023-01-28T01:51:14.548Z,3.67
2023-01-28T01:53:42.647Z,4.45
2023-01-28T01:56:10.580Z,3.70
2023-01-28T01:58:38.135Z,3.08
2023-01-28T02:01:04.797Z,4.20
2023-01-28T02:03:38.702Z,4.07
2023-01-28T02:06:05.113Z,5.40
2023-01-28T02:08:31.462Z,3.80
2023-01-28T02:11:01.162Z,4.00
2023-01-28T02:13:30.271Z,3.05
2023-01-28T02:16:00.097Z,4.47
2023-01-28T02:18:26.546Z,3.40
2023-01-28T02:21:04.446Z,4.10
2023-01-28T02:23:39.902Z,4.25
2023-01-28T02:26:24.453Z,4.43
2023-01-28T02:29:05.425Z,3.05
2023-01-28T02:31:37.299Z,3.08
2023-01-28T02:34:30.027Z,4.20
2023-01-28T02:37:01.838Z,2.88
2023-01-28T02:39:36.469Z,3.53
2023-01-28T02:42:05.269Z,4.07
2023-01-28T02:44:32.681Z,3.75
2023-01-28T02:47:18.952Z,4.40
2023-01-28T02:49:51.715Z,2.85
2023-01-28T02:52:51.824Z,2.60
2023-01-28T02:55:35.596Z,2.35
2023-01-28T02:58:02.335Z,3.25
2023-01-28T03:00:28.662Z,2.08
2023-01-28T03:03:01.006Z,2.55
2023-01-28T03:05:38.603Z,2.45
2023-01-28T03:08:26.548Z,2.63
2023-01-28T03:11:15.527Z,2.15
2023-01-28T03:14:01.355Z,2.53
2023-01-28T03:16:47.473Z,2.00
2023-01-28T03:19:32.716Z,2.17
2023-01-28T03:22:17.904Z,1.88
2023-01-28T03:25:08.496Z,2.05
2023-01-28T03:28:08.968Z,1.70
2023-01-28T03:30:58.392Z,1.60
2023-01-28T03:33:53.636Z,1.95
2023-01-28T03:36:38.903Z,2.10
2023-01-28T03:39:06.304Z,2.10
2023-01-28T03:41:33.541Z,2.22
2023-01-28T03:44:18.823Z,2.60
2023-01-28T03:46:48.582Z,3.00
2023-01-28T03:49:18.113Z,2.45
2023-01-28T03:51:46.105Z,2.70
2023-01-28T03:54:12.931Z,3.17
2023-01-28T03:56:41.149Z,2.50
2023-01-28T03:59:07.655Z,2.95
2023-01-28T04:01:34.605Z,2.60
2023-01-28T04:04:01.388Z,3.38
2023-01-28T04:06:28.944Z,3.75
2023-01-28T04:09:24.578Z,2.33
2023-01-28T04:11:57.926Z,2.50
2023-01-28T04:14:30.045Z,2.38
2023-01-28T04:17:13.211Z,2.38
2023-01-28T04:19:40.326Z,4.03
2023-01-28T04:22:09.855Z,4.32
2023-01-28T04:24:36.515Z,3.03
2023-01-28T04:27:02.816Z,2.20
2023-01-28T04:29:29.187Z,1.92
2023-01-28T04:32:00.394Z,2.30
2023-01-28T04:34:38.361Z,2.58
2023-01-28T04:37:33.866Z,2.05
2023-01-28T04:40:25.112Z,3.35
2023-01-28T04:43:02.452Z,3.58
2023-01-28T04:48:31.286Z,2.35
2023-01-28T04:51:23.642Z,2.17
2023-01-28T04:54:03.960Z,2.17
2023-01-28T04:56:31.997Z,1.73
2023-01-28T04:58:59.549Z,2.10
2023-01-28T05:01:26.094Z,2.42
2023-01-28T05:03:53.094Z,2.85
2023-01-28T05:06:25.439Z,2.08
2023-01-28T05:08:56.917Z,2.38
2023-01-28T05:11:23.859Z,2.15
2023-01-28T05:13:54.893Z,2.30
2023-01-28T05:16:21.349Z,2.30
2023-01-28T05:18:48.050Z,2.67
2023-01-28T05:21:16.491Z,2.50
2023-01-28T05:23:43.763Z,2.38
2023-01-28T05:26:10.185Z,2.20
2023-01-28T05:28:36.563Z,2.40
2023-01-28T05:31:06.867Z,2.95
2023-01-28T05:33:33.535Z,2.60
2023-01-28T05:36:00.196Z,2.25
2023-01-28T05:38:27.673Z,2.20
2023-01-28T05:40:54.158Z,2.47
2023-01-28T05:43:20.681Z,2.75
2023-01-28T05:46:00.961Z,4.35
2023-01-28T05:48:32.196Z,3.63
2023-01-28T05:51:12.794Z,3.13
2023-01-28T05:53:44.286Z,3.38
2023-01-28T05:56:11.029Z,3.88
2023-01-28T05:58:38.743Z,7.47
2023-01-28T06:01:05.100Z,4.50
2023-01-28T06:03:39.725Z,7.13
2023-01-28T06:06:06.196Z,5.38
2023-01-28T06:08:32.545Z,6.38
2023-01-28T06:10:59.565Z,3.55
2023-01-28T06:13:26.482Z,3.45
2023-01-28T06:16:15.885Z,3.30
2023-01-28T06:18:59.329Z,4.55
2023-01-28T06:21:25.666Z,4.00
2023-01-28T06:23:51.993Z,2.75
2023-01-28T06:26:18.411Z,3.42
2023-01-28T06:28:45.827Z,3.13
2023-01-28T06:31:12.163Z,4.65
2023-01-28T06:33:38.455Z,3.00
2023-01-28T06:36:06.600Z,3.30
2023-01-28T06:38:32.932Z,3.90
2023-01-28T06:40:59.309Z,3.50
2023-01-28T06:43:27.897Z,3.38
2023-01-28T06:45:54.873Z,3.50
2023-01-28T06:48:21.229Z,3.88
2023-01-28T06:50:47.969Z,3.85
2023-01-28T06:53:14.876Z,4.15
2023-01-28T06:55:41.214Z,3.38
2023-01-28T06:58:07.740Z,6.07
2023-01-28T07:00:34.066Z,3.75
2023-01-28T07:03:00.381Z,2.90
2023-01-28T07:05:26.661Z,4.65
2023-01-28T07:07:52.961Z,3.75
2023-01-28T07:10:19.331Z,5.15
2023-01-28T07:12:45.971Z,3.83
2023-01-28T07:15:12.652Z,3.47
2023-01-28T07:17:40.715Z,3.42
2023-01-28T07:20:07.373Z,5.35
2023-01-28T07:22:33.648Z,4.32
2023-01-28T07:25:01.124Z,3.90
2023-01-28T07:27:27.409Z,3.17
2023-01-28T07:29:53.658Z,5.35
2023-01-28T07:32:19.937Z,4.00
2023-01-28T07:34:46.218Z,4.43
2023-01-28T07:37:12.485Z,5.38
2023-01-28T07:39:38.838Z,5.07
2023-01-28T07:42:05.179Z,5.55
2023-01-28T07:44:36.817Z,4.22
2023-01-28T07:47:03.830Z,3.03
2023-01-28T07:49:30.165Z,3.55
2023-01-28T07:51:56.549Z,2.42
2023-01-28T07:54:22.847Z,2.75
2023-01-28T07:56:49.162Z,2.50
2023-01-28T07:59:15.547Z,4.22
2023-01-28T08:01:41.882Z,3.15
2023-01-28T08:04:08.375Z,3.55
2023-01-28T08:06:37.805Z,3.20
2023-01-28T08:09:08.273Z,3.33
2023-01-28T08:11:35.681Z,2.67
2023-01-28T08:14:01.983Z,4.57
2023-01-28T08:16:29.243Z,4.22
2023-01-28T08:18:55.586Z,3.33
2023-01-28T08:21:21.836Z,3.75
2023-01-28T08:23:48.198Z,2.78
2023-01-28T08:26:14.576Z,4.82
2023-01-28T08:28:41.047Z,3.75
2023-01-28T08:31:07.467Z,6.47
2023-01-28T08:33:33.890Z,4.07
2023-01-28T08:36:02.782Z,3.25
2023-01-28T08:38:29.084Z,4.18
2023-01-28T08:40:56.078Z,2.10
2023-01-28T08:43:22.454Z,4.43
2023-01-28T08:45:48.829Z,3.63
2023-01-28T08:48:16.403Z,2.80
2023-01-28T08:50:43.081Z,3.35
2023-01-28T08:53:13.368Z,3.40
2023-01-28T08:55:39.795Z,3.40
2023-01-28T08:58:07.179Z,3.53
2023-01-28T09:00:34.107Z,2.78
2023-01-28T09:03:00.434Z,5.55
2023-01-28T09:05:26.788Z,4.53
2023-01-28T09:07:53.144Z,3.92
2023-01-28T09:10:22.440Z,3.53
2023-01-28T09:12:48.830Z,4.65
2023-01-28T09:15:15.256Z,2.80
2023-01-28T09:17:41.586Z,3.78
2023-01-28T09:20:08.544Z,2.85
2023-01-28T09:22:35.161Z,2.92
2023-01-28T09:25:01.494Z,2.78
2023-01-28T09:27:27.854Z,3.78
2023-01-28T09:29:55.102Z,3.40
2023-01-28T09:32:25.027Z,2.78
2023-01-28T09:34:52.106Z,3.45
2023-01-28T09:37:35.099Z,3.17
2023-01-28T09:40:02.652Z,3.00
2023-01-28T09:42:38.745Z,2.85
2023-01-28T09:45:20.775Z,2.60
2023-01-28T09:47:56.985Z,2.60
2023-01-28T09:50:44.907Z,3.35
2023-01-28T09:53:22.906Z,2.83
2023-01-28T09:55:57.425Z,4.13
2023-01-28T09:58:27.340Z,2.95
2023-01-28T10:07:42.607Z,3.38
2023-01-28T10:10:48.951Z,2.53
2023-01-28T10:18:17.249Z,3.28
2023-01-28T10:22:15.208Z,4.05
2023-01-28T10:50:32.294Z,2.20
2023-01-28T10:53:03.032Z,3.42
2023-01-28T10:55:47.905Z,2.35
2023-01-28T10:58:18.447Z,2.60
2023-01-28T11:00:44.798Z,2.83
2023-01-28T11:03:18.767Z,3.80
2023-01-28T11:05:52.114Z,2.35
2023-01-28T11:08:19.377Z,3.75
2023-01-28T11:10:46.435Z,3.97
2023-01-28T11:13:16.885Z,3.08
2023-01-28T11:15:47.376Z,3.20
2023-01-28T11:18:16.970Z,5.05
2023-01-28T11:20:49.200Z,2.28
2023-01-28T11:23:20.852Z,2.88
2023-01-28T11:25:47.254Z,3.08
2023-01-28T11:28:18.458Z,3.03
2023-01-28T11:30:50.871Z,2.15
2023-01-28T11:33:18.587Z,2.40
2023-01-28T11:35:54.304Z,2.35
2023-01-28T11:38:22.024Z,2.13
2023-01-28T11:40:55.708Z,2.58
2023-01-28T11:46:13.856Z,3.88
2023-01-28T11:49:01.854Z,2.83
2023-01-28T11:51:38.120Z,2.15
2023-01-28T11:54:16.736Z,4.75
2023-01-28T11:56:46.141Z,2.78
2023-01-28T11:59:35.819Z,2.72
2023-01-28T12:02:23.703Z,3.80
2023-01-28T12:05:09.070Z,3.58
2023-01-28T12:07:50.107Z,3.10
2023-01-28T12:10:26.899Z,1.98
2023-01-28T12:13:16.459Z,2.55
2023-01-28T12:16:01.696Z,3.10
2023-01-28T12:18:35.138Z,3.25
2023-01-28T12:21:11.366Z,3.33
2023-01-28T12:23:48.007Z,2.58
2023-01-28T12:26:22.688Z,2.00
2023-01-28T12:28:51.979Z,3.75
2023-01-28T12:31:21.690Z,3.90
2023-01-28T12:34:06.853Z,3.75
2023-01-28T12:36:54.585Z,4.13
2023-01-28T12:39:45.603Z,4.53
2023-01-28T12:42:24.831Z,3.53
2023-01-28T12:45:10.732Z,2.92
2023-01-28T12:47:49.552Z,8.55
2023-01-28T12:50:28.706Z,3.13
2023-01-28T12:53:12.416Z,3.25
2023-01-28T12:55:49.393Z,3.75
2023-01-28T12:58:22.869Z,3.47
2023-01-28T13:01:14.098Z,2.92
2023-01-28T13:04:05.711Z,2.05
2023-01-28T13:06:41.666Z,2.90
2023-01-28T13:09:34.679Z,2.00
2023-01-28T13:12:02.892Z,2.67
2023-01-28T13:14:35.369Z,2.47
2023-01-28T13:17:25.457Z,2.53
2023-01-28T13:19:52.293Z,3.55
2023-01-28T13:22:30.092Z,2.22
2023-01-28T13:25:24.179Z,2.92
2023-01-28T13:28:07.958Z,3.45
2023-01-28T13:30:50.733Z,2.53
2023-01-28T13:33:31.838Z,2.58
2023-01-28T13:36:03.597Z,2.97
2023-01-28T13:38:36.482Z,2.28
2023-01-28T13:41:09.463Z,3.28
2023-01-28T13:43:46.664Z,4.80
2023-01-28T13:46:26.911Z,3.38
2023-01-28T13:49:09.118Z,2.25
2023-01-28T13:51:41.900Z,3.08
2023-01-28T13:54:13.780Z,3.47
2023-01-28T13:57:01.606Z,3.45
2023-01-28T13:59:45.933Z,2.45
2023-01-28T14:02:36.944Z,2.50
2023-01-28T14:05:23.499Z,3.33
2023-01-28T14:08:17.625Z,7.60
2023-01-28T14:11:00.335Z,4.63
2023-01-28T14:14:00.850Z,2.38
2023-01-28T14:16:33.752Z,3.72
2023-01-28T14:19:05.948Z,1.92
2023-01-28T14:21:39.490Z,2.28
2023-01-28T14:24:18.901Z,4.32
2023-01-28T14:27:09.756Z,5.63
2023-01-28T14:30:01.233Z,4.13
2023-01-28T14:32:36.246Z,10.38
2023-01-28T14:35:11.642Z,5.78
2023-01-28T14:37:40.142Z,4.43
2023-01-28T14:40:23.353Z,3.75
2023-01-28T14:47:22.812Z,4.45
2023-01-28T14:50:48.549Z,3.88
2023-01-28T15:07:10.345Z,2.65
2023-01-28T15:10:06.232Z,3.47
2023-01-28T15:12:44.678Z,3.90
2023-01-28T15:15:32.049Z,5.45
2023-01-28T15:31:49.039Z,5.32
2023-01-28T15:34:57.600Z,6.18
2023-01-28T15:41:49.600Z,6.13
2023-01-28T15:44:43.606Z,8.20
2023-01-28T15:47:38.200Z,4.85
2023-01-28T15:50:09.757Z,5.10
2023-01-28T15:52:38.254Z,3.40
2023-01-28T15:55:09.413Z,5.85
2023-01-28T15:57:38.708Z,3.17
2023-01-28T16:00:13.233Z,6.10
2023-01-28T16:02:50.345Z,5.95
2023-01-28T16:05:41.446Z,5.30
2023-01-28T16:08:14.434Z,4.18
2023-01-28T16:10:52.539Z,3.60
2023-01-28T16:13:30.273Z,5.95
2023-01-28T16:15:57.709Z,6.43
2023-01-28T16:18:48.593Z,3.55
2023-01-28T16:21:22.893Z,4.32
2023-01-28T16:24:06.487Z,4.30
2023-01-28T16:26:35.642Z,8.32
2023-01-28T16:29:16.699Z,8.82
2023-01-28T16:31:43.349Z,6.07
2023-01-28T16:34:13.009Z,5.75
2023-01-28T16:36:52.273Z,6.22
2023-01-28T16:39:22.939Z,5.80
2023-01-28T16:41:53.556Z,5.47
2023-01-28T16:44:24.106Z,5.85
2023-01-28T16:46:55.297Z,8.50
2023-01-28T16:52:03.404Z,8.60
2023-01-28T16:54:39.130Z,11.73
2023-01-28T16:59:48.281Z,15.85
2023-01-28T17:02:20.311Z,17.65
2023-01-28T17:05:06.177Z,15.98
2023-01-28T17:07:32.854Z,11.05
2023-01-28T17:10:04.336Z,10.35
2023-01-28T17:12:30.715Z,10.02
2023-01-28T17:14:57.063Z,8.98
2023-01-28T17:17:23.332Z,12.07
2023-01-28T17:19:49.602Z,14.00
2023-01-28T17:22:15.876Z,12.15
2023-01-28T17:24:42.195Z,12.65
2023-01-28T17:27:09.631Z,10.38
2023-01-28T17:29:35.962Z,11.10
2023-01-28T17:32:02.350Z,9.68
2023-01-28T17:34:28.777Z,10.07
2023-01-28T17:36:55.084Z,10.32
2023-01-28T17:39:21.392Z,13.25
2023-01-28T17:41:47.710Z,9.80
2023-01-28T17:44:16.853Z,8.70
2023-01-28T17:46:43.132Z,8.77
2023-01-28T17:49:09.418Z,10.02
2023-01-28T17:51:35.936Z,11.73
2023-01-28T17:54:02.427Z,13.52
2023-01-28T17:56:29.346Z,13.45
2023-01-28T17:58:56.766Z,11.93
2023-01-28T18:01:24.192Z,12.85
2023-01-28T18:03:50.522Z,14.15
2023-01-28T18:06:16.993Z,11.80
2023-01-28T18:08:43.370Z,13.63
2023-01-28T18:11:10.406Z,14.20
2023-01-28T18:13:37.536Z,12.27
2023-01-28T18:16:04.836Z,11.45
2023-01-28T18:18:31.944Z,11.95
2023-01-28T18:20:59.082Z,12.23
2023-01-28T18:23:25.952Z,11.63
2023-01-28T18:25:55.677Z,12.57
2023-01-28T18:28:21.946Z,8.43
2023-01-28T18:30:48.300Z,13.30
2023-01-28T18:33:14.646Z,11.88
2023-01-28T18:35:42.137Z,10.55
2023-01-28T18:38:08.786Z,7.93
2023-01-28T18:40:35.404Z,9.48
2023-01-28T18:43:01.864Z,7.95
2023-01-28T18:45:28.226Z,5.60
2023-01-28T18:47:54.536Z,6.85
2023-01-28T18:50:20.839Z,7.30
2023-01-28T18:52:47.101Z,6.78
2023-01-28T18:55:13.693Z,5.55
2023-01-28T18:57:40.033Z,7.07
2023-01-28T19:00:06.712Z,7.18
2023-01-28T19:02:33.036Z,6.65
2023-01-28T19:04:59.391Z,8.55
2023-01-28T19:07:25.711Z,5.72
2023-01-28T19:09:51.972Z,6.32
2023-01-28T19:12:19.428Z,6.80
2023-01-28T19:14:47.456Z,7.68
2023-01-28T19:17:13.788Z,6.10
2023-01-28T19:19:40.153Z,8.18
2023-01-28T19:22:06.689Z,5.63
2023-01-28T19:24:33.056Z,6.28
2023-01-28T19:26:59.403Z,7.50
2023-01-28T19:29:28.336Z,6.28
2023-01-28T19:31:54.796Z,5.35
2023-01-28T19:34:21.195Z,7.97
2023-01-28T19:36:47.568Z,9.15
2023-01-28T19:39:14.546Z,6.07
2023-01-28T19:41:40.910Z,5.97
2023-01-28T19:44:07.197Z,5.45
2023-01-28T19:46:34.358Z,6.88
2023-01-28T19:49:00.722Z,5.65
2023-01-28T19:51:27.013Z,5.32
2023-01-28T19:53:54.389Z,6.75
2023-01-28T19:56:21.559Z,5.60
2023-01-28T19:58:47.949Z,8.05
2023-01-28T20:01:19.236Z,9.15
2023-01-28T20:03:48.289Z,9.57
2023-01-28T20:06:15.450Z,7.63
2023-01-28T20:08:42.176Z,7.38
2023-01-28T20:11:10.186Z,7.65
2023-01-28T20:13:36.910Z,7.00
2023-01-28T20:16:07.247Z,5.38
2023-01-28T20:18:33.778Z,6.97
2023-01-28T20:21:00.156Z,6.63
2023-01-28T20:23:26.574Z,8.38
2023-01-28T20:25:54.686Z,7.65
2023-01-28T20:28:21.857Z,10.27
2023-01-28T20:30:48.546Z,11.68
2023-01-28T20:33:14.989Z,8.82
2023-01-28T20:35:42.242Z,8.70
2023-01-28T20:38:08.561Z,8.98
2023-01-28T20:40:35.780Z,7.53
2023-01-28T20:43:02.133Z,7.95
2023-01-28T20:45:28.377Z,7.25
2023-01-28T20:47:54.673Z,9.48
2023-01-28T20:50:21.020Z,7.88
2023-01-28T20:52:47.398Z,11.45
2023-01-28T20:55:13.946Z,9.60
2023-01-28T20:57:40.261Z,11.00
2023-01-28T21:00:06.873Z,8.57
2023-01-28T21:02:35.479Z,6.45
2023-01-28T21:05:02.254Z,8.55
2023-01-28T21:07:28.499Z,8.82
2023-01-28T21:09:54.802Z,9.98
2023-01-28T21:12:21.294Z,7.72
2023-01-28T21:14:48.962Z,6.57
2023-01-28T21:17:15.710Z,6.68
2023-01-28T21:19:42.224Z,6.10
2023-01-28T21:22:08.758Z,10.40
2023-01-28T21:24:35.102Z,7.68
2023-01-28T21:27:01.504Z,10.48
2023-01-28T21:29:27.855Z,8.85
2023-01-28T21:31:54.242Z,8.63
2023-01-28T21:34:21.358Z,10.55
2023-01-28T21:36:47.673Z,14.45
2023-01-28T21:39:14.069Z,7.80
2023-01-28T21:41:40.374Z,8.95
2023-01-28T21:44:06.719Z,9.43
2023-01-28T21:46:33.493Z,5.93
2023-01-28T21:49:00.877Z,8.23
2023-01-28T21:51:36.420Z,10.07
2023-01-28T21:54:03.568Z,11.30
2023-01-28T21:56:29.848Z,13.75
2023-01-28T21:59:25.330Z,14.52
2023-01-28T22:01:51.702Z,22.55
2023-01-28T22:04:18.190Z,17.75
2023-01-28T22:06:45.170Z,11.35
2023-01-28T22:09:13.397Z,9.63
2023-01-28T22:11:40.183Z,7.95
2023-01-28T22:14:06.942Z,7.03
2023-01-28T22:16:33.290Z,8.85
2023-01-28T22:18:59.641Z,7.25
2023-01-28T22:21:25.915Z,8.55
2023-01-28T22:23:52.245Z,12.10
2023-01-28T22:26:18.551Z,11.18
2023-01-28T22:28:44.823Z,12.43
2023-01-28T22:31:12.622Z,9.60
2023-01-28T22:33:39.043Z,11.02
2023-01-28T22:36:06.331Z,8.75
2023-01-28T22:38:32.660Z,8.38
2023-01-28T22:41:09.432Z,6.53
2023-01-28T22:43:35.945Z,10.25
2023-01-28T22:46:03.029Z,6.70
2023-01-28T22:48:29.552Z,7.75
2023-01-28T22:51:00.429Z,7.72
2023-01-28T22:53:26.713Z,6.88
2023-01-28T22:55:54.734Z,6.72
2023-01-28T22:58:21.197Z,6.93
2023-01-28T23:00:47.529Z,8.65
2023-01-28T23:03:13.864Z,7.22
2023-01-28T23:05:40.190Z,6.22
2023-01-28T23:08:12.343Z,6.00
2023-01-28T23:10:39.903Z,5.53
2023-01-28T23:13:06.828Z,5.85
2023-01-28T23:15:52.009Z,7.60
2023-01-28T23:18:38.503Z,6.85
2023-01-28T23:21:34.396Z,6.22
2023-01-28T23:24:18.877Z,8.55
2023-01-28T23:26:46.050Z,6.30
2023-01-28T23:29:12.320Z,6.70
2023-01-28T23:31:42.658Z,9.93
2023-01-28T23:34:09.410Z,9.90
2023-01-28T23:36:36.019Z,10.15
2023-01-28T23:39:02.410Z,7.00
2023-01-28T23:41:28.676Z,11.77
2023-01-28T23:43:54.955Z,9.07
2023-01-28T23:46:33.880Z,7.22
2023-01-28T23:51:31.470Z,6.78
2023-01-28T23:53:57.854Z,6.40
2023-01-28T23:56:24.186Z,6.70
2023-01-28T23:58:50.652Z,8.80
